Terminal Aerodrome Forecast
Issued by NWS

Home | Current Version | Previous Version | Text Only | Print | Product List | Glossary On
Versions: 1 2 3 4 5 6 7 8 9 10 11 12 13 14 15
000
FTAK31 PAJN 062300
TAFASI
TAF
PASI 062322Z 0700/0724 23008KT P6SM FEW030 BKN150
     FM070400 10004KT P6SM BKN100
     FM071600 12006KT P6SM SCT060 OVC100
     FM071900 12010KT P6SM VCSH BKN060 OVC080=

USA.gov is the U.S. government's official web portal to all federal, state and local government web resources and services.